Time;durP1;ratioP1;P1;durP2;ratioP2;P2;SDS_P1;SDS_P2;PMS_P1;PMS_P2;Temp;Humidity;BMP_temperature;BMP_pressure;BME280_temperature;BME280_humidity;BME280_pressure;Samples;Min_cycle;Max_cycle;Signal;HPM_P1;HPM_P2
2022/11/25 00:00:46;;;;;;;1.02;1.02;;;;;;;5.84;65.79;99915.53;4395591;32;32383;-91
2022/11/25 00:03:19;;;;;;;11.50;2.33;;;;;;;6.12;64.95;99914.91;4382478;32;33916;-92
2022/11/25 00:06:18;;;;;;;1.00;0.70;;;;;;;6.18;64.79;99913.94;4384860;32;33223;-92
2022/11/25 00:09:08;;;;;;;1.58;1.48;;;;;;;6.19;64.61;99920.88;4380536;32;32134;-93
2022/11/25 00:12:02;;;;;;;9.43;2.22;;;;;;;6.05;64.87;99908.97;4349234;33;34373;-92
2022/11/25 00:14:44;;;;;;;3.03;1.45;;;;;;;6.11;64.58;99908.81;4438375;32;33030;-92
2022/11/25 00:17:28;;;;;;;0.43;0.43;;;;;;;6.11;64.63;99905.31;4354457;32;35019;-90
2022/11/25 00:20:09;;;;;;;3.83;0.85;;;;;;;6.04;64.93;99906.38;4343143;32;32643;-89
2022/11/25 00:22:38;;;;;;;0.47;0.47;;;;;;;6.06;64.96;99904.56;4378727;32;32649;-90
2022/11/25 00:25:08;;;;;;;1.10;0.93;;;;;;;5.97;65.61;99917.91;4354959;32;33817;-90
2022/11/25 00:27:37;;;;;;;0.28;0.28;;;;;;;6.08;65.04;99923.75;4355034;32;33005;-89
2022/11/25 00:30:06;;;;;;;1.55;1.45;;;;;;;5.97;65.17;99910.03;4366138;32;33147;-89
2022/11/25 00:32:35;;;;;;;2.72;1.60;;;;;;;6.01;65.54;99928.28;4380497;32;32447;-89
2022/11/25 00:35:03;;;;;;;1.45;1.45;;;;;;;6.16;65.06;99927.91;4373191;32;34309;-89
2022/11/25 00:37:31;;;;;;;4.12;2.28;;;;;;;6.25;64.86;99925.97;4352605;32;32783;-88
2022/11/25 00:40:00;;;;;;;0.80;0.75;;;;;;;6.09;65.21;99930.72;4367008;32;33328;-89
2022/11/25 00:45:15;;;;;;;2.33;2.00;;;;;;;6.43;65.24;99920.28;4355329;32;32930;-89
2022/11/25 00:47:44;;;;;;;1.42;1.37;;;;;;;6.50;65.41;99931.47;4351611;32;32652;-89
2022/11/25 00:50:12;;;;;;;2.05;1.95;;;;;;;6.40;65.79;99933.47;4363980;32;32466;-89
2022/11/25 00:52:42;;;;;;;3.42;1.10;;;;;;;6.46;65.91;99940.31;4349487;32;33274;-89
2022/11/25 00:55:11;;;;;;;2.47;2.35;;;;;;;6.22;66.54;99936.53;4378515;32;33006;-87
2022/11/25 00:57:41;;;;;;;2.25;0.85;;;;;;;6.26;66.50;99944.28;4363526;32;32743;-86
2022/11/25 01:00:13;;;;;;;1.60;1.50;;;;;;;6.50;66.27;99932.31;4363674;32;32841;-86
2022/11/25 01:02:43;;;;;;;1.35;1.27;;;;;;;6.28;67.26;99936.41;4370701;32;34116;-86
2022/11/25 01:05:13;;;;;;;0.88;0.88;;;;;;;6.33;67.34;99945.88;4366916;32;32751;-86
2022/11/25 01:07:42;;;;;;;2.05;1.95;;;;;;;6.12;68.69;99941.13;4360460;32;34261;-86
2022/11/25 01:10:10;;;;;;;0.88;0.88;;;;;;;6.20;68.84;99948.81;4355995;32;32590;-86
2022/11/25 01:12:39;;;;;;;0.65;0.65;;;;;;;6.27;68.26;99953.91;4376979;32;32828;-86
2022/11/25 01:15:08;;;;;;;1.35;0.85;;;;;;;6.46;67.92;99950.81;4368217;32;33084;-87
2022/11/25 01:17:36;;;;;;;2.60;0.90;;;;;;;6.33;68.39;99964.22;4370544;32;32613;-87
2022/11/25 01:20:05;;;;;;;3.10;1.27;;;;;;;6.41;68.34;99959.66;4371620;32;33123;-87
2022/11/25 01:22:32;;;;;;;1.52;1.42;;;;;;;6.52;67.96;99955.91;4380452;32;32820;-88
2022/11/25 01:25:03;;;;;;;1.00;0.90;;;;;;;6.54;67.80;99961.97;4367838;32;32623;-88
2022/11/25 01:27:33;;;;;;;1.83;1.58;;;;;;;6.44;67.89;99952.63;4380188;32;34693;-88
2022/11/25 01:30:01;;;;;;;4.05;1.35;;;;;;;6.52;67.58;99953.28;4363160;32;33294;-88
2022/11/25 01:32:28;;;;;;;1.45;1.37;;;;;;;6.26;68.17;99954.78;4379627;32;32929;-88
2022/11/25 01:34:57;;;;;;;1.15;1.08;;;;;;;6.37;68.12;99960.63;4367586;32;33170;-89
2022/11/25 01:37:25;;;;;;;1.12;1.12;;;;;;;6.59;67.20;99958.34;4360869;32;33314;-86
2022/11/25 01:39:53;;;;;;;0.65;0.65;;;;;;;6.87;66.23;99953.25;4360317;32;33229;-85
2022/11/25 01:42:21;;;;;;;4.05;2.85;;;;;;;6.83;66.30;99954.22;4373557;32;34249;-88
2022/11/25 01:45:21;;;;;;;2.75;2.60;;;;;;;6.73;66.45;99955.37;4361439;32;33365;-88
2022/11/25 01:47:57;;;;;;;1.05;1.05;;;;;;;6.68;66.48;99950.22;4371681;32;33232;-88
2022/11/25 01:50:26;;;;;;;2.08;1.98;;;;;;;6.72;66.68;99958.03;4359619;32;32618;-89
2022/11/25 01:52:55;;;;;;;1.65;1.52;;;;;;;6.67;66.76;99960.78;4356959;32;32923;-89
2022/11/25 01:55:26;;;;;;;2.70;2.50;;;;;;;6.64;66.94;99958.22;4361309;32;33073;-88
2022/11/25 01:58:02;;;;;;;1.25;1.10;;;;;;;6.58;67.23;99963.63;4344573;32;33711;-90
2022/11/25 02:00:50;;;;;;;2.10;1.95;;;;;;;6.22;68.28;99958.38;4390777;32;33083;-89
2022/11/25 02:03:24;;;;;;;1.50;1.40;;;;;;;6.58;67.01;99950.50;4379017;32;32556;-87
2022/11/25 02:06:18;;;;;;;1.75;1.65;;;;;;;6.58;66.84;99951.38;4379513;32;33048;-86
2022/11/25 02:08:50;;;;;;;1.40;1.35;;;;;;;6.88;65.82;99952.38;4365195;32;33609;-86
2022/11/25 02:11:19;;;;;;;1.13;1.13;;;;;;;7.04;65.01;99963.31;4376836;32;33135;-86
2022/11/25 02:13:48;;;;;;;1.52;1.48;;;;;;;7.01;65.02;99957.28;4364483;32;33401;-86
2022/11/25 02:16:16;;;;;;;1.92;1.83;;;;;;;6.60;66.28;99957.47;4377059;32;34816;-86
2022/11/25 02:18:44;;;;;;;3.78;2.15;;;;;;;6.50;66.61;99961.19;4377494;32;32475;-85
2022/11/25 02:21:15;;;;;;;0.80;0.80;;;;;;;6.24;67.58;99964.44;4379261;32;33452;-85
2022/11/25 02:23:54;;;;;;;0.90;0.90;;;;;;;6.49;67.13;99971.72;4371971;32;33413;-86
2022/11/25 02:26:41;;;;;;;1.65;1.55;;;;;;;6.46;67.18;99961.28;4392128;32;33273;-86
2022/11/25 02:29:09;;;;;;;3.78;2.25;;;;;;;6.38;67.55;99964.97;4379544;32;33144;-88
2022/11/25 02:31:37;;;;;;;0.73;0.73;;;;;;;6.46;67.27;99966.53;4379506;32;32289;-87
2022/11/25 02:34:05;;;;;;;0.90;0.90;;;;;;;6.36;67.52;99969.41;4391807;32;33886;-88
2022/11/25 02:36:33;;;;;;;0.90;0.90;;;;;;;6.25;67.88;99976.66;4391632;32;33401;-88
2022/11/25 02:39:03;;;;;;;1.37;1.30;;;;;;;6.39;67.42;99971.94;4388657;32;32623;-88
2022/11/25 02:41:34;;;;;;;0.35;0.35;;;;;;;6.67;66.32;99966.03;4367181;32;32983;-87
2022/11/25 02:44:03;;;;;;;1.30;1.30;;;;;;;6.87;65.54;99969.00;4364812;32;32647;-87
2022/11/25 02:46:31;;;;;;;2.25;1.95;;;;;;;7.18;63.71;99966.44;4375033;32;33403;-85
2022/11/25 02:49:00;;;;;;;0.62;0.62;;;;;;;6.93;64.26;99968.84;4401378;32;34040;-85
2022/11/25 02:51:37;;;;;;;0.30;0.30;;;;;;;6.76;64.59;99971.03;4370854;32;32957;-85
2022/11/25 02:54:05;;;;;;;0.88;0.88;;;;;;;6.77;64.45;99975.38;4383471;32;33191;-85
2022/11/25 02:56:34;;;;;;;1.80;1.70;;;;;;;7.03;63.65;99972.09;4395504;32;34714;-85
2022/11/25 02:59:03;;;;;;;1.75;1.65;;;;;;;6.29;65.83;99965.19;4363588;32;34731;-85
2022/11/25 03:01:31;;;;;;;1.65;1.55;;;;;;;6.33;65.83;99966.84;4358508;32;32828;-85
2022/11/25 03:04:00;;;;;;;4.05;2.33;;;;;;;6.57;65.69;99969.78;4358441;32;33234;-85
2022/11/25 03:06:30;;;;;;;2.47;1.50;;;;;;;6.61;65.82;99974.06;4347745;32;32725;-85
2022/11/25 03:08:58;;;;;;;2.10;1.35;;;;;;;6.74;65.59;99978.09;4378483;32;32832;-86
2022/11/25 03:14:15;;;;;;;2.78;2.58;;;;;;;6.82;65.44;99972.66;4377719;32;34527;-86
2022/11/25 03:16:46;;;;;;;0.75;0.75;;;;;;;6.68;66.07;99973.84;4358894;32;33242;-86
2022/11/25 03:19:14;;;;;;;2.55;2.35;;;;;;;6.96;65.18;99977.53;4347045;32;32968;-86
2022/11/25 03:21:42;;;;;;;0.57;0.57;;;;;;;6.80;65.74;99982.34;4364239;32;33730;-86
2022/11/25 03:24:10;;;;;;;0.10;0.10;;;;;;;6.78;65.72;99984.97;4372820;32;33503;-86
2022/11/25 03:26:39;;;;;;;4.78;1.37;;;;;;;6.96;65.25;99982.78;4373022;32;32669;-86
2022/11/25 03:29:07;;;;;;;3.58;3.15;;;;;;;6.26;67.28;99986.22;4378054;32;34028;-86
2022/11/25 03:31:35;;;;;;;1.65;1.55;;;;;;;6.69;65.95;99985.19;4370843;32;32219;-87
2022/11/25 03:34:03;;;;;;;1.05;1.05;;;;;;;6.66;65.77;99987.94;4377889;32;33408;-85
2022/11/25 03:36:31;;;;;;;0.45;0.45;;;;;;;7.01;64.85;100000.16;4365167;32;34508;-85
2022/11/25 03:38:58;;;;;;;1.83;1.73;;;;;;;7.09;64.43;100003.44;4370805;32;33030;-85
2022/11/25 03:41:27;;;;;;;1.65;0.82;;;;;;;7.05;63.94;100003.56;4371126;32;33603;-85
2022/11/25 03:43:54;;;;;;;3.78;2.05;;;;;;;7.05;63.96;100003.56;4367853;32;34539;-85
2022/11/25 03:46:22;;;;;;;1.98;1.77;;;;;;;7.11;63.73;100003.37;4354846;32;34186;-85
2022/11/25 03:48:52;;;;;;;0.65;0.65;;;;;;;7.10;63.67;100004.28;4376721;32;34558;-88
2022/11/25 03:51:21;;;;;;;0.88;0.88;;;;;;;6.67;64.19;100002.75;4365025;32;32555;-87
2022/11/25 03:53:49;;;;;;;1.75;1.40;;;;;;;6.79;64.20;100007.72;4358295;32;32776;-89
2022/11/25 03:56:26;;;;;;;1.85;1.48;;;;;;;6.46;64.55;100016.37;4372658;32;33084;-89
2022/11/25 03:58:55;;;;;;;1.45;1.35;;;;;;;6.57;64.53;100012.63;4376071;32;32776;-89
2022/11/25 04:01:24;;;;;;;1.12;1.12;;;;;;;6.57;64.53;100012.63;4380281;32;32663;-88
2022/11/25 04:03:53;;;;;;;1.52;1.35;;;;;;;6.61;64.51;100016.91;4366275;32;33332;-88
2022/11/25 04:06:22;;;;;;;0.85;0.85;;;;;;;6.41;65.21;100022.63;4380030;32;33318;-88
2022/11/25 04:08:52;;;;;;;2.37;2.28;;;;;;;5.95;67.38;100030.63;4380373;32;32989;-89
2022/11/25 04:12:45;;;;;;;0.77;0.50;;;;;;;5.78;68.71;100038.81;4368759;32;32354;-89
2022/11/25 04:14:19;;;;;;;1.33;1.25;;;;;;;5.63;69.70;100032.12;4380542;32;32930;-88
2022/11/25 04:16:51;;;;;;;0.55;0.55;;;;;;;6.05;68.09;100029.53;4377499;32;32904;-87
2022/11/25 04:19:19;;;;;;;0.88;0.85;;;;;;;6.21;67.56;100027.44;4378084;32;33414;-87
2022/11/25 04:21:48;;;;;;;2.67;2.47;;;;;;;5.99;68.29;100039.31;4379472;32;33180;-87
2022/11/25 04:24:19;;;;;;;1.15;1.15;;;;;;;5.92;68.55;100038.56;4378702;32;33466;-87
2022/11/25 04:26:49;;;;;;;3.40;1.37;;;;;;;6.32;67.22;100040.34;4378570;32;33579;-87
2022/11/25 04:29:16;;;;;;;2.83;2.37;;;;;;;6.40;67.25;100036.59;4366136;32;33819;-87
2022/11/25 04:31:44;;;;;;;1.17;1.17;;;;;;;6.45;66.88;100043.50;4379464;32;32499;-89
2022/11/25 04:34:13;;;;;;;2.62;2.03;;;;;;;6.47;66.71;100044.37;4384490;32;32887;-88
2022/11/25 04:36:43;;;;;;;0.82;0.82;;;;;;;6.61;65.98;100051.00;4368166;32;33007;-88
2022/11/25 04:39:12;;;;;;;1.52;1.48;;;;;;;6.43;66.29;100061.91;4368094;32;33295;-88
2022/11/25 04:41:41;;;;;;;1.90;1.80;;;;;;;6.58;65.50;100063.31;4378718;32;33820;-88
2022/11/25 04:48:19;;;;;;;5.60;1.98;;;;;;;6.55;65.44;100071.25;4358822;32;33308;-87
2022/11/25 04:50:48;;;;;;;2.20;1.58;;;;;;;6.12;66.82;100090.56;4367160;32;32229;-87
2022/11/25 04:53:17;;;;;;;0.40;0.40;;;;;;;6.24;66.94;100082.44;4379180;32;32073;-87
2022/11/25 04:55:46;;;;;;;2.58;2.40;;;;;;;6.54;65.79;100093.16;4367002;32;33552;-87
2022/11/25 04:59:38;;;;;;;1.58;1.52;;;;;;;6.51;65.66;100099.34;4376912;32;34716;-88
2022/11/25 05:01:04;;;;;;;2.33;2.25;;;;;;;6.33;65.79;100097.13;4380157;32;33975;-88
2022/11/25 05:03:32;;;;;;;0.82;0.82;;;;;;;6.49;65.49;100101.13;4380257;32;32283;-88
2022/11/25 05:06:06;;;;;;;6.37;1.85;;;;;;;6.58;65.05;100103.53;4367871;32;32372;-88
2022/11/25 05:08:35;;;;;;;1.08;0.98;;;;;;;6.53;65.13;100104.56;4367437;32;32990;-88
2022/11/25 05:11:04;;;;;;;0.35;0.35;;;;;;;6.51;65.25;100106.34;4380323;32;33205;-88
2022/11/25 05:13:32;;;;;;;1.40;0.90;;;;;;;6.36;65.23;100112.78;4365082;32;32957;-89
2022/11/25 05:16:06;;;;;;;2.95;1.98;;;;;;;6.26;65.43;100112.09;4391528;32;32238;-89
2022/11/25 05:18:34;;;;;;;1.17;1.08;;;;;;;6.29;65.11;100117.28;4365637;32;32641;-89
2022/11/25 05:21:23;;;;;;;2.05;1.95;;;;;;;6.35;64.52;100111.91;4369639;32;33545;-88
2022/11/25 05:24:12;;;;;;;1.70;1.60;;;;;;;6.35;64.43;100122.41;4389908;32;33014;-89
2022/11/25 05:26:51;;;;;;;1.60;1.52;;;;;;;6.31;64.08;100125.97;4368309;32;32896;-86
2022/11/25 05:29:19;;;;;;;1.85;1.75;;;;;;;6.39;63.29;100124.06;4367330;32;33204;-86
2022/11/25 05:31:49;;;;;;;6.75;2.70;;;;;;;6.26;63.21;100125.22;4367661;32;33052;-86
2022/11/25 05:34:17;;;;;;;1.55;1.35;;;;;;;6.25;63.00;100134.00;4379602;32;32310;-87
2022/11/25 05:36:47;;;;;;;1.87;1.77;;;;;;;6.17;62.82;100133.28;4367001;32;33063;-89
2022/11/25 05:39:32;;;;;;;3.08;2.47;;;;;;;5.92;62.47;100143.38;4391483;32;34086;-88
2022/11/25 05:42:05;;;;;;;9.18;1.62;;;;;;;5.89;62.93;100146.91;4367228;32;33679;-89
2022/11/25 05:44:38;;;;;;;2.28;2.10;;;;;;;5.58;63.44;100153.59;4377449;32;33599;-90
2022/11/25 05:47:24;;;;;;;2.10;0.60;;;;;;;5.63;63.55;100155.25;4370533;32;33172;-90
2022/11/25 05:50:11;;;;;;;3.00;2.20;;;;;;;5.71;63.39;100149.00;4375641;32;33600;-88
2022/11/25 05:52:41;;;;;;;2.60;2.08;;;;;;;5.44;63.94;100156.47;4405157;32;33991;-89
2022/11/25 05:55:09;;;;;;;1.67;1.58;;;;;;;5.24;65.08;100164.66;4392057;32;33025;-86
2022/11/25 05:57:36;;;;;;;0.00;0.00;;;;;;;5.33;65.25;100172.34;4381837;32;32432;-89
2022/11/25 06:00:19;;;;;;;0.57;0.57;;;;;;;5.50;64.36;100166.81;4415805;32;32948;-87
2022/11/25 06:03:01;;;;;;;1.92;1.83;;;;;;;5.56;64.21;100171.12;4416273;32;34346;-87
2022/11/25 06:05:40;;;;;;;1.65;1.05;;;;;;;5.61;64.05;100169.28;4415439;32;33433;-87
2022/11/25 06:08:16;;;;;;;0.50;0.50;;;;;;;5.59;63.89;100171.03;4433845;32;33688;-87
2022/11/25 06:10:47;;;;;;;1.62;1.52;;;;;;;5.57;63.94;100175.44;4420697;32;34733;-87
2022/11/25 06:13:17;;;;;;;1.90;1.42;;;;;;;5.64;63.59;100179.69;4410961;32;35396;-88
2022/11/25 06:15:47;;;;;;;2.35;2.15;;;;;;;5.63;63.31;100184.06;4415771;32;33524;-87
2022/11/25 06:18:18;;;;;;;6.62;1.35;;;;;;;5.62;63.11;100181.47;4426807;32;34555;-87
2022/11/25 06:20:56;;;;;;;5.03;3.25;;;;;;;5.65;62.96;100184.06;4418550;32;32803;-87
2022/11/25 06:23:27;;;;;;;2.08;1.87;;;;;;;5.52;63.16;100190.38;4428651;32;33099;-86
2022/11/25 06:26:09;;;;;;;2.78;1.62;;;;;;;5.48;63.13;100202.66;4406675;32;32023;-87
2022/11/25 06:29:01;;;;;;;0.50;0.50;;;;;;;5.45;63.10;100199.22;4416564;32;33954;-86
2022/11/25 06:31:29;;;;;;;1.70;1.60;;;;;;;5.45;62.77;100204.47;4404502;32;33302;-87
2022/11/25 06:34:05;;;;;;;3.03;1.58;;;;;;;5.24;63.83;100205.69;4402278;32;33960;-87
2022/11/25 06:36:34;;;;;;;3.17;2.97;;;;;;;5.13;64.61;100211.09;4411018;32;33363;-87
2022/11/25 06:39:05;;;;;;;3.25;3.03;;;;;;;5.26;64.17;100209.97;4418916;32;34169;-87
2022/11/25 06:41:39;;;;;;;1.85;1.65;;;;;;;5.42;63.92;100215.00;4411120;32;34263;-87
2022/11/25 06:44:15;;;;;;;3.50;2.75;;;;;;;5.31;64.23;100210.78;4429184;32;34676;-87
2022/11/25 06:46:47;;;;;;;4.60;4.18;;;;;;;5.28;64.15;100213.47;4413864;32;31930;-86
2022/11/25 06:49:16;;;;;;;2.15;1.20;;;;;;;5.33;64.35;100213.37;4426300;32;34360;-86
2022/11/25 06:51:44;;;;;;;3.12;1.65;;;;;;;5.44;63.98;100219.31;4406585;32;32320;-86
2022/11/25 06:54:13;;;;;;;3.17;2.97;;;;;;;5.36;63.96;100219.44;4413855;32;33190;-86
2022/11/25 06:56:50;;;;;;;2.10;1.95;;;;;;;5.45;63.72;100220.16;4415103;32;33382;-87
2022/11/25 06:59:20;;;;;;;0.75;0.75;;;;;;;5.49;63.84;100222.72;4424544;32;33462;-93
2022/11/25 07:02:10;;;;;;;1.20;1.20;;;;;;;5.58;63.50;100217.31;4402844;32;34059;-93
2022/11/25 07:04:58;;;;;;;8.40;2.53;;;;;;;5.45;64.51;100233.25;4405393;32;32968;-93
2022/11/25 07:10:42;;;;;;;2.28;2.17;;;;;;;5.31;65.17;100242.19;4420330;32;32865;-92
2022/11/25 07:13:25;;;;;;;1.50;1.40;;;;;;;5.32;66.03;100240.47;4347398;32;33511;-89
2022/11/25 07:16:04;;;;;;;2.12;1.50;;;;;;;5.42;66.74;100243.81;4360247;32;33426;-87
2022/11/25 07:18:36;;;;;;;2.33;2.20;;;;;;;5.67;66.68;100245.13;4359641;32;33145;-87
2022/11/25 07:21:15;;;;;;;1.37;1.35;;;;;;;5.81;66.76;100245.75;4361051;32;32806;-88
2022/11/25 07:23:46;;;;;;;2.22;2.12;;;;;;;6.00;66.62;100241.09;4360326;32;33585;-88
2022/11/25 07:26:18;;;;;;;2.08;1.98;;;;;;;6.12;66.46;100246.12;4348719;32;33267;-88
2022/11/25 07:28:53;;;;;;;2.22;2.10;;;;;;;6.28;66.21;100245.84;4359636;32;32908;-88
2022/11/25 07:31:34;;;;;;;2.20;2.10;;;;;;;6.12;66.98;100240.00;4359527;32;32576;-88
2022/11/25 07:34:16;;;;;;;2.85;2.25;;;;;;;6.24;67.08;100238.91;4355275;32;33096;-89
2022/11/25 07:36:46;;;;;;;5.12;4.80;;;;;;;6.41;67.06;100239.47;4350657;32;32184;-87
2022/11/25 07:39:18;;;;;;;6.22;2.65;;;;;;;6.58;66.79;100239.12;4351387;32;32474;-87
2022/11/25 07:41:53;;;;;;;3.22;2.92;;;;;;;6.62;66.90;100231.16;4364549;32;32531;-88
2022/11/25 07:44:24;;;;;;;2.28;2.17;;;;;;;6.75;67.14;100236.16;4372474;32;33492;-87
2022/11/25 07:47:02;;;;;;;3.28;3.00;;;;;;;7.07;66.00;100232.81;4364979;32;33430;-87
2022/11/25 07:49:31;;;;;;;5.05;4.60;;;;;;;7.08;66.31;100231.94;4364838;32;33354;-87
2022/11/25 07:52:01;;;;;;;1.85;1.75;;;;;;;7.08;66.72;100234.56;4362091;32;33378;-87
2022/11/25 07:54:35;;;;;;;1.65;1.55;;;;;;;7.26;66.49;100235.88;4363318;32;33369;-87
2022/11/25 07:57:05;;;;;;;1.42;1.33;;;;;;;7.18;67.02;100236.94;4362202;32;34104;-87
2022/11/25 07:59:40;;;;;;;1.80;1.70;;;;;;;7.22;67.55;100243.00;4374874;32;33220;-87
2022/11/25 08:04:52;;;;;;;1.20;1.20;;;;;;;7.54;66.38;100239.56;4365059;32;34715;-87
2022/11/25 08:07:21;;;;;;;4.80;3.25;;;;;;;7.65;66.40;100242.81;4364769;32;34417;-88
2022/11/25 08:09:50;;;;;;;2.15;2.05;;;;;;;7.95;65.63;100246.44;4362814;32;32942;-88
2022/11/25 08:12:19;;;;;;;3.83;2.12;;;;;;;7.81;65.80;100242.44;4366444;32;33049;-88
2022/11/25 08:14:47;;;;;;;0.70;0.65;;;;;;;8.03;65.07;100241.00;4347152;32;32790;-88
2022/11/25 08:17:24;;;;;;;0.80;0.57;;;;;;;7.89;64.90;100243.97;4372833;32;32839;-87
2022/11/25 08:19:54;;;;;;;2.42;2.30;;;;;;;8.15;64.32;100245.91;4358006;32;32736;-88
2022/11/25 08:22:24;;;;;;;0.90;0.90;;;;;;;8.21;64.16;100250.13;4359593;32;32657;-88
2022/11/25 08:24:57;;;;;;;3.47;2.58;;;;;;;8.34;63.98;100251.53;4370599;32;33816;-88
2022/11/25 08:27:25;;;;;;;3.22;2.35;;;;;;;8.55;62.74;100252.75;4348234;32;33431;-88
2022/11/25 08:30:00;;;;;;;0.90;0.90;;;;;;;8.75;62.62;100261.84;4346010;32;33670;-88
2022/11/25 08:32:30;;;;;;;1.37;1.30;;;;;;;8.90;61.93;100264.91;4358756;32;32493;-88
2022/11/25 08:34:59;;;;;;;2.55;2.12;;;;;;;9.08;61.75;100262.62;4346411;32;33311;-88
2022/11/25 08:37:30;;;;;;;4.10;2.83;;;;;;;9.42;nan;100263.31;4359733;32;33972;-88
2022/11/25 08:42:33;;;;;;;3.78;2.60;;;;;;;8.86;61.67;100260.63;4372087;32;32932;-88
2022/11/25 08:45:02;;;;;;;4.05;1.60;;;;;;;9.37;60.00;100257.31;4358103;32;34597;-88
2022/11/25 08:47:32;;;;;;;1.50;1.25;;;;;;;9.42;59.87;100257.19;4358311;32;32942;-88
2022/11/25 08:50:07;;;;;;;0.52;0.52;;;;;;;9.61;60.07;100254.81;4369614;32;33410;-88
2022/11/25 08:52:42;;;;;;;1.52;1.48;;;;;;;9.65;60.43;100259.09;4376296;32;32550;-88
2022/11/25 08:55:21;;;;;;;2.92;2.45;;;;;;;9.86;59.59;100250.44;4359738;32;32835;-88
2022/11/25 08:57:49;;;;;;;1.40;1.15;;;;;;;9.74;59.22;100253.50;4360613;32;33053;-89
2022/11/25 09:00:21;;;;;;;1.98;1.87;;;;;;;10.22;58.17;100250.97;4372026;32;33246;-88
2022/11/25 09:02:49;;;;;;;1.77;1.45;;;;;;;10.45;57.52;100249.34;4378915;32;33436;-88
2022/11/25 09:05:18;;;;;;;1.42;1.33;;;;;;;10.31;58.20;100249.81;4364892;32;32982;-89
2022/11/25 09:07:51;;;;;;;2.97;2.10;;;;;;;10.24;58.30;100250.94;4353596;32;32970;-89
2022/11/25 09:10:22;;;;;;;2.50;2.15;;;;;;;10.05;59.91;100248.03;4368671;32;32454;-89
2022/11/25 09:12:52;;;;;;;0.90;0.90;;;;;;;10.59;57.68;100254.13;4354627;32;32538;-89
2022/11/25 09:15:20;;;;;;;1.37;1.35;;;;;;;10.71;57.44;100246.59;4354931;32;33213;-89
2022/11/25 09:17:59;;;;;;;1.83;0.93;;;;;;;10.68;57.63;100254.66;4379582;32;32303;-89
2022/11/25 09:20:31;;;;;;;7.00;4.13;;;;;;;10.77;58.31;100258.69;4369613;32;32407;-89
2022/11/25 09:23:01;;;;;;;1.00;0.93;;;;;;;10.94;57.83;100252.78;4367198;32;33204;-89
2022/11/25 09:25:30;;;;;;;7.45;3.90;;;;;;;11.07;56.93;100247.91;4366433;32;33525;-89
2022/11/25 09:27:58;;;;;;;1.85;1.75;;;;;;;11.38;55.98;100250.19;4366543;32;33721;-89
2022/11/25 09:30:26;;;;;;;3.22;2.35;;;;;;;11.40;56.25;100243.09;4371988;32;34264;-89
2022/11/25 09:33:02;;;;;;;2.58;2.30;;;;;;;11.73;54.68;100241.72;4370671;32;33918;-89
2022/11/25 09:35:31;;;;;;;1.92;1.80;;;;;;;11.59;55.33;100249.34;4354618;32;33195;-88
2022/11/25 09:38:00;;;;;;;0.73;0.73;;;;;;;11.36;56.63;100239.69;4385938;32;34036;-89
2022/11/25 09:40:35;;;;;;;2.65;2.37;;;;;;;11.45;56.44;100241.13;4379264;32;32428;-89
2022/11/25 09:46:40;;;;;;;2.60;1.37;;;;;;;11.99;54.46;100231.84;4392518;32;32624;-87
2022/11/25 09:49:53;;;;;;;4.82;3.50;;;;;;;11.93;54.88;100230.31;4378845;32;33711;-88
2022/11/25 09:52:52;;;;;;;1.37;1.33;;;;;;;12.13;54.63;100228.59;4358564;32;32992;-85
2022/11/25 09:55:23;;;;;;;5.57;3.25;;;;;;;12.19;55.49;100228.34;4389404;32;33457;-85
2022/11/25 09:58:18;;;;;;;1.23;1.23;;;;;;;12.05;54.27;100224.47;4366849;32;33077;-85
2022/11/25 10:00:49;;;;;;;2.72;2.53;;;;;;;12.67;53.38;100224.41;4378042;32;32741;-85
2022/11/25 10:03:42;;;;;;;2.62;2.40;;;;;;;12.89;53.49;100227.81;4370663;32;32067;-89
2022/11/25 10:07:07;;;;;;;1.60;1.23;;;;;;;12.88;53.44;100228.75;4317122;33;34629;-85
2022/11/25 10:09:35;;;;;;;2.33;1.67;;;;;;;13.14;52.28;100230.16;4306121;32;33498;-85
2022/11/25 10:12:23;;;;;;;2.03;1.23;;;;;;;12.49;53.29;100236.72;4365841;32;32858;-84
2022/11/25 10:15:00;;;;;;;3.28;2.47;;;;;;;12.84;52.91;100228.97;4361083;32;34078;-84
2022/11/25 10:17:43;;;;;;;5.65;2.33;;;;;;;12.88;52.71;100234.06;4366122;32;33116;-84
2022/11/25 10:20:28;;;;;;;2.87;1.77;;;;;;;13.03;51.96;100232.47;4377973;32;33954;-84
2022/11/25 10:23:03;;;;;;;2.33;1.67;;;;;;;13.35;51.71;100225.69;4352401;32;33824;-84
2022/11/25 10:25:44;;;;;;;2.37;2.08;;;;;;;13.35;51.93;100228.34;4350977;32;33984;-85
2022/11/25 10:28:24;;;;;;;3.12;2.72;;;;;;;13.13;51.65;100232.91;4359380;32;32812;-84
2022/11/25 10:31:06;;;;;;;0.95;0.95;;;;;;;12.96;52.62;100229.25;4366389;32;34764;-84
2022/11/25 10:33:45;;;;;;;7.40;2.35;;;;;;;12.99;52.41;100231.75;4377930;32;33509;-84
2022/11/25 10:36:28;;;;;;;2.95;0.45;;;;;;;13.37;51.57;100230.91;4371720;32;32456;-84
2022/11/25 10:39:03;;;;;;;1.55;1.23;;;;;;;13.70;50.78;100229.25;4368275;32;34741;-84
2022/11/25 10:41:55;;;;;;;1.45;0.95;;;;;;;13.28;51.32;100226.91;4360853;32;32983;-84
2022/11/25 10:44:31;;;;;;;3.22;1.92;;;;;;;13.56;51.59;100227.28;4367755;32;34544;-84
2022/11/25 10:47:23;;;;;;;2.12;2.00;;;;;;;13.28;52.23;100229.53;4383535;32;33820;-84
2022/11/25 10:50:07;;;;;;;1.67;1.58;;;;;;;13.59;51.40;100236.87;4384394;32;33399;-84
2022/11/25 10:52:46;;;;;;;1.00;0.98;;;;;;;13.91;50.76;100232.63;4381361;32;34343;-84
2022/11/25 10:55:27;;;;;;;2.55;1.70;;;;;;;13.94;50.58;100229.81;4374906;32;34061;-89
2022/11/25 11:05:44;;;;;;;4.25;2.53;;;;;;;13.76;51.36;100251.97;4366759;32;34768;-89
2022/11/25 11:08:38;;;;;;;1.62;1.52;;;;;;;14.07;50.50;100244.19;4366138;32;33377;-89
2022/11/25 11:11:21;;;;;;;1.52;1.42;;;;;;;13.49;52.54;100249.75;4369630;32;34148;-89
2022/11/25 11:14:20;;;;;;;1.15;1.12;;;;;;;13.60;52.34;100251.88;4396408;32;33405;-89
2022/11/25 11:17:22;;;;;;;2.40;2.20;;;;;;;13.94;51.26;100248.38;4407676;32;32792;-89
2022/11/25 11:20:24;;;;;;;1.60;1.50;;;;;;;13.55;51.41;100252.09;4402825;32;32880;-89
2022/11/25 11:23:04;;;;;;;1.92;1.83;;;;;;;13.90;52.36;100254.78;4405366;32;32659;-88
2022/11/25 11:28:37;;;;;;;1.98;1.87;;;;;;;14.15;49.96;100243.81;4383782;32;33127;-94
2022/11/25 11:31:23;;;;;;;2.05;1.90;;;;;;;13.83;51.60;100248.09;4383064;32;35005;-94
2022/11/25 11:34:28;;;;;;;4.12;2.75;;;;;;;14.12;50.57;100240.44;4372143;32;33260;-93
2022/11/25 11:37:43;;;;;;;0.82;0.77;;;;;;;13.87;50.44;100252.31;4420524;32;33136;-93
2022/11/25 11:40:42;;;;;;;1.85;1.65;;;;;;;13.94;51.19;100252.84;4370223;32;32456;-93
2022/11/25 11:43:47;;;;;;;1.83;1.73;;;;;;;13.74;51.93;100251.19;4395778;32;32917;-96
2022/11/25 11:46:58;;;;;;;0.93;0.93;;;;;;;13.72;51.52;100253.03;4407297;32;32556;-95
2022/11/25 11:49:50;;;;;;;3.17;2.92;;;;;;;13.56;51.82;100253.81;4379373;32;32428;-95
2022/11/25 11:53:01;;;;;;;1.67;1.58;;;;;;;13.15;53.04;100257.53;4424360;32;32807;-95
2022/11/25 11:56:07;;;;;;;0.52;0.52;;;;;;;13.28;53.64;100256.06;4431481;32;32338;-96
2022/11/25 11:59:15;;;;;;;1.20;0.90;;;;;;;13.30;53.32;100259.53;4370232;32;31704;-95
2022/11/25 12:02:11;;;;;;;1.05;0.88;;;;;;;13.61;51.47;100244.75;4421815;32;33847;-95
2022/11/25 12:05:18;;;;;;;2.55;1.37;;;;;;;13.43;52.68;100241.22;4409780;32;33214;-95
2022/11/25 12:08:13;;;;;;;0.20;0.20;;;;;;;13.07;54.02;100239.34;4399813;32;34885;-95
2022/11/25 12:11:30;;;;;;;0.88;0.88;;;;;;;13.07;54.78;100248.16;4406423;32;33562;-94
2022/11/25 12:14:44;;;;;;;5.85;3.10;;;;;;;13.38;53.56;100238.78;4409053;32;35553;-94
2022/11/25 12:17:50;;;;;;;16.15;2.55;;;;;;;12.99;53.16;100247.66;4428004;32;33142;-93
2022/11/25 12:20:52;;;;;;;4.78;1.40;;;;;;;13.45;52.40;100237.56;4385568;32;32831;-93
2022/11/25 12:31:26;;;;;;;1.50;1.40;;;;;;;13.91;52.38;100235.28;4411460;32;35796;-94
2022/11/25 12:34:16;;;;;;;0.77;0.77;;;;;;;13.94;51.60;100229.81;4395614;32;33175;-94
2022/11/25 12:37:14;;;;;;;2.47;1.85;;;;;;;13.81;51.75;100237.56;4416180;32;33615;-94
2022/11/25 12:40:27;;;;;;;2.30;1.12;;;;;;;13.62;52.26;100239.38;4367836;32;33153;-93
2022/11/25 12:43:27;;;;;;;0.30;0.30;;;;;;;13.23;54.80;100244.81;4394008;32;32487;-93
2022/11/25 12:46:35;;;;;;;0.88;0.88;;;;;;;13.43;53.96;100236.75;4390826;32;32918;-93
2022/11/25 12:49:24;;;;;;;2.85;2.10;;;;;;;13.43;54.58;100231.44;4419580;32;32346;-92
2022/11/25 12:52:25;;;;;;;1.92;0.98;;;;;;;13.42;54.03;100232.38;4404611;32;32461;-94
2022/11/25 13:00:04;;;;;;;1.80;1.30;;;;;;;13.34;53.07;100226.63;4426189;32;34619;-93
2022/11/25 13:03:32;;;;;;;1.17;1.08;;;;;;;13.06;53.71;100225.25;4397785;32;33853;-94